sensor_id;sensor_type;location;lat;lon;timestamp;P1;durP1;ratioP1;P2;durP2;ratioP2
17790;SDS011;9019;48.132;-1.210;2022-09-21T00:00:25;8.67;;;6.20;;
17790;SDS011;9019;48.132;-1.210;2022-09-21T00:02:54;7.73;;;6.43;;
17790;SDS011;9019;48.132;-1.210;2022-09-21T00:05:22;8.83;;;6.33;;
17790;SDS011;9019;48.132;-1.210;2022-09-21T00:07:49;9.60;;;6.90;;
17790;SDS011;9019;48.132;-1.210;2022-09-21T00:10:16;9.00;;;6.53;;
17790;SDS011;9019;48.132;-1.210;2022-09-21T00:12:46;8.83;;;6.77;;
17790;SDS011;9019;48.132;-1.210;2022-09-21T00:15:15;8.10;;;6.50;;
17790;SDS011;9019;48.132;-1.210;2022-09-21T00:17:43;7.70;;;6.40;;
17790;SDS011;9019;48.132;-1.210;2022-09-21T00:20:13;7.73;;;6.50;;
17790;SDS011;9019;48.132;-1.210;2022-09-21T00:22:41;7.73;;;6.50;;
17790;SDS011;9019;48.132;-1.210;2022-09-21T00:25:08;7.77;;;6.00;;
17790;SDS011;9019;48.132;-1.210;2022-09-21T00:27:36;7.20;;;6.17;;
17790;SDS011;9019;48.132;-1.210;2022-09-21T00:30:03;10.20;;;6.60;;
17790;SDS011;9019;48.132;-1.210;2022-09-21T00:32:34;6.83;;;6.13;;
17790;SDS011;9019;48.132;-1.210;2022-09-21T00:35:02;8.07;;;6.00;;
17790;SDS011;9019;48.132;-1.210;2022-09-21T00:37:31;9.43;;;6.23;;
17790;SDS011;9019;48.132;-1.210;2022-09-21T00:39:59;7.70;;;6.17;;
17790;SDS011;9019;48.132;-1.210;2022-09-21T00:42:26;7.13;;;6.20;;
17790;SDS011;9019;48.132;-1.210;2022-09-21T00:44:54;7.87;;;6.23;;
17790;SDS011;9019;48.132;-1.210;2022-09-21T00:47:22;7.00;;;6.17;;
17790;SDS011;9019;48.132;-1.210;2022-09-21T00:49:54;7.97;;;6.53;;
17790;SDS011;9019;48.132;-1.210;2022-09-21T00:52:22;7.10;;;6.40;;
17790;SDS011;9019;48.132;-1.210;2022-09-21T00:54:50;9.73;;;6.50;;
17790;SDS011;9019;48.132;-1.210;2022-09-21T00:57:19;8.23;;;6.67;;
17790;SDS011;9019;48.132;-1.210;2022-09-21T00:59:47;7.50;;;6.47;;
17790;SDS011;9019;48.132;-1.210;2022-09-21T01:02:16;9.83;;;6.70;;
17790;SDS011;9019;48.132;-1.210;2022-09-21T01:04:43;10.73;;;6.60;;
17790;SDS011;9019;48.132;-1.210;2022-09-21T01:07:13;9.07;;;6.90;;
17790;SDS011;9019;48.132;-1.210;2022-09-21T01:09:42;7.97;;;6.77;;
17790;SDS011;9019;48.132;-1.210;2022-09-21T01:12:15;9.13;;;6.30;;
17790;SDS011;9019;48.132;-1.210;2022-09-21T01:14:58;10.03;;;7.13;;
17790;SDS011;9019;48.132;-1.210;2022-09-21T01:17:29;8.43;;;6.40;;
17790;SDS011;9019;48.132;-1.210;2022-09-21T01:23:10;8.87;;;6.70;;
17790;SDS011;9019;48.132;-1.210;2022-09-21T01:25:41;9.00;;;6.47;;
17790;SDS011;9019;48.132;-1.210;2022-09-21T01:28:20;6.53;;;5.90;;
17790;SDS011;9019;48.132;-1.210;2022-09-21T01:30:56;8.83;;;6.77;;
17790;SDS011;9019;48.132;-1.210;2022-09-21T01:33:31;8.87;;;6.63;;
17790;SDS011;9019;48.132;-1.210;2022-09-21T01:36:00;9.63;;;7.10;;
17790;SDS011;9019;48.132;-1.210;2022-09-21T01:38:30;8.13;;;6.67;;
17790;SDS011;9019;48.132;-1.210;2022-09-21T01:40:59;9.17;;;7.00;;
17790;SDS011;9019;48.132;-1.210;2022-09-21T01:43:30;8.83;;;6.70;;
17790;SDS011;9019;48.132;-1.210;2022-09-21T01:45:59;8.23;;;6.57;;
17790;SDS011;9019;48.132;-1.210;2022-09-21T01:48:28;9.13;;;6.20;;
17790;SDS011;9019;48.132;-1.210;2022-09-21T01:50:59;6.87;;;6.17;;
17790;SDS011;9019;48.132;-1.210;2022-09-21T01:53:29;8.67;;;6.40;;
17790;SDS011;9019;48.132;-1.210;2022-09-21T01:55:58;9.97;;;7.00;;
17790;SDS011;9019;48.132;-1.210;2022-09-21T01:58:29;10.33;;;6.50;;
17790;SDS011;9019;48.132;-1.210;2022-09-21T02:00:59;9.77;;;7.00;;
17790;SDS011;9019;48.132;-1.210;2022-09-21T02:03:28;8.67;;;6.63;;
17790;SDS011;9019;48.132;-1.210;2022-09-21T02:05:56;9.87;;;6.97;;
17790;SDS011;9019;48.132;-1.210;2022-09-21T02:08:23;8.40;;;7.00;;
17790;SDS011;9019;48.132;-1.210;2022-09-21T02:10:52;10.47;;;7.27;;
17790;SDS011;9019;48.132;-1.210;2022-09-21T02:13:20;7.87;;;6.83;;
17790;SDS011;9019;48.132;-1.210;2022-09-21T02:15:53;8.83;;;7.60;;
17790;SDS011;9019;48.132;-1.210;2022-09-21T02:18:27;8.10;;;6.83;;
17790;SDS011;9019;48.132;-1.210;2022-09-21T02:20:59;8.73;;;6.97;;
17790;SDS011;9019;48.132;-1.210;2022-09-21T02:23:31;9.70;;;7.37;;
17790;SDS011;9019;48.132;-1.210;2022-09-21T02:26:03;7.73;;;6.70;;
17790;SDS011;9019;48.132;-1.210;2022-09-21T02:28:35;12.20;;;7.70;;
17790;SDS011;9019;48.132;-1.210;2022-09-21T02:31:05;12.17;;;7.80;;
17790;SDS011;9019;48.132;-1.210;2022-09-21T02:33:40;9.60;;;7.63;;
17790;SDS011;9019;48.132;-1.210;2022-09-21T02:36:09;9.90;;;7.40;;
17790;SDS011;9019;48.132;-1.210;2022-09-21T02:38:38;8.37;;;7.27;;
17790;SDS011;9019;48.132;-1.210;2022-09-21T02:41:10;10.33;;;6.97;;
17790;SDS011;9019;48.132;-1.210;2022-09-21T02:43:42;8.47;;;7.17;;
17790;SDS011;9019;48.132;-1.210;2022-09-21T02:46:12;8.60;;;7.27;;
17790;SDS011;9019;48.132;-1.210;2022-09-21T02:48:44;9.37;;;7.40;;
17790;SDS011;9019;48.132;-1.210;2022-09-21T02:51:13;11.00;;;7.33;;
17790;SDS011;9019;48.132;-1.210;2022-09-21T02:53:41;9.43;;;7.33;;
17790;SDS011;9019;48.132;-1.210;2022-09-21T02:56:10;9.57;;;7.70;;
17790;SDS011;9019;48.132;-1.210;2022-09-21T02:58:41;8.43;;;7.30;;
17790;SDS011;9019;48.132;-1.210;2022-09-21T03:01:10;9.10;;;7.73;;
17790;SDS011;9019;48.132;-1.210;2022-09-21T03:03:37;10.00;;;7.20;;
17790;SDS011;9019;48.132;-1.210;2022-09-21T03:06:06;11.13;;;8.03;;
17790;SDS011;9019;48.132;-1.210;2022-09-21T03:08:33;10.67;;;7.90;;
17790;SDS011;9019;48.132;-1.210;2022-09-21T03:11:00;11.67;;;8.03;;
17790;SDS011;9019;48.132;-1.210;2022-09-21T03:13:28;10.37;;;7.87;;
17790;SDS011;9019;48.132;-1.210;2022-09-21T03:15:58;9.03;;;7.73;;
17790;SDS011;9019;48.132;-1.210;2022-09-21T03:18:26;10.33;;;8.03;;
17790;SDS011;9019;48.132;-1.210;2022-09-21T03:20:54;10.77;;;8.30;;
17790;SDS011;9019;48.132;-1.210;2022-09-21T03:23:22;8.73;;;7.83;;
17790;SDS011;9019;48.132;-1.210;2022-09-21T03:25:49;10.40;;;8.03;;
17790;SDS011;9019;48.132;-1.210;2022-09-21T03:28:18;9.23;;;7.80;;
17790;SDS011;9019;48.132;-1.210;2022-09-21T03:30:46;8.90;;;8.00;;
17790;SDS011;9019;48.132;-1.210;2022-09-21T03:33:14;10.80;;;8.33;;
17790;SDS011;9019;48.132;-1.210;2022-09-21T03:35:41;9.57;;;8.13;;
17790;SDS011;9019;48.132;-1.210;2022-09-21T03:38:08;12.17;;;8.20;;
17790;SDS011;9019;48.132;-1.210;2022-09-21T03:40:37;9.77;;;8.07;;
17790;SDS011;9019;48.132;-1.210;2022-09-21T03:43:04;11.53;;;8.00;;
17790;SDS011;9019;48.132;-1.210;2022-09-21T03:45:31;10.47;;;8.07;;
17790;SDS011;9019;48.132;-1.210;2022-09-21T03:47:59;11.37;;;8.43;;
17790;SDS011;9019;48.132;-1.210;2022-09-21T03:50:27;10.50;;;8.13;;
17790;SDS011;9019;48.132;-1.210;2022-09-21T03:52:55;9.83;;;8.07;;
17790;SDS011;9019;48.132;-1.210;2022-09-21T03:55:23;10.77;;;8.20;;
17790;SDS011;9019;48.132;-1.210;2022-09-21T03:57:53;13.23;;;8.47;;
17790;SDS011;9019;48.132;-1.210;2022-09-21T04:00:21;11.57;;;8.50;;
17790;SDS011;9019;48.132;-1.210;2022-09-21T04:02:49;8.90;;;7.80;;
17790;SDS011;9019;48.132;-1.210;2022-09-21T04:05:16;11.63;;;8.17;;
17790;SDS011;9019;48.132;-1.210;2022-09-21T04:07:44;12.90;;;8.47;;
17790;SDS011;9019;48.132;-1.210;2022-09-21T04:10:12;12.27;;;8.50;;
17790;SDS011;9019;48.132;-1.210;2022-09-21T04:12:39;10.17;;;8.13;;
17790;SDS011;9019;48.132;-1.210;2022-09-21T04:15:10;8.80;;;7.90;;
17790;SDS011;9019;48.132;-1.210;2022-09-21T04:17:37;9.93;;;8.37;;
17790;SDS011;9019;48.132;-1.210;2022-09-21T04:20:05;10.67;;;8.57;;
17790;SDS011;9019;48.132;-1.210;2022-09-21T04:22:33;8.87;;;7.97;;
17790;SDS011;9019;48.132;-1.210;2022-09-21T04:25:00;10.20;;;8.67;;
17790;SDS011;9019;48.132;-1.210;2022-09-21T04:27:28;9.93;;;8.53;;
17790;SDS011;9019;48.132;-1.210;2022-09-21T04:29:56;10.50;;;8.23;;
17790;SDS011;9019;48.132;-1.210;2022-09-21T04:32:24;10.77;;;8.80;;
17790;SDS011;9019;48.132;-1.210;2022-09-21T04:34:52;10.27;;;8.80;;
17790;SDS011;9019;48.132;-1.210;2022-09-21T04:37:22;11.60;;;8.77;;
17790;SDS011;9019;48.132;-1.210;2022-09-21T04:39:49;12.27;;;8.70;;
17790;SDS011;9019;48.132;-1.210;2022-09-21T04:42:16;10.90;;;8.53;;
17790;SDS011;9019;48.132;-1.210;2022-09-21T04:44:43;9.80;;;8.40;;
17790;SDS011;9019;48.132;-1.210;2022-09-21T04:47:11;11.47;;;8.77;;
17790;SDS011;9019;48.132;-1.210;2022-09-21T04:49:39;12.70;;;8.60;;
17790;SDS011;9019;48.132;-1.210;2022-09-21T04:52:07;12.93;;;8.53;;
17790;SDS011;9019;48.132;-1.210;2022-09-21T04:54:34;12.97;;;9.10;;
17790;SDS011;9019;48.132;-1.210;2022-09-21T04:57:01;10.50;;;9.10;;
17790;SDS011;9019;48.132;-1.210;2022-09-21T04:59:28;11.63;;;9.23;;
17790;SDS011;9019;48.132;-1.210;2022-09-21T05:01:56;11.47;;;9.03;;
17790;SDS011;9019;48.132;-1.210;2022-09-21T05:04:23;10.20;;;9.10;;
17790;SDS011;9019;48.132;-1.210;2022-09-21T05:06:51;11.67;;;9.53;;
17790;SDS011;9019;48.132;-1.210;2022-09-21T05:09:18;11.77;;;9.23;;
17790;SDS011;9019;48.132;-1.210;2022-09-21T05:12:03;12.20;;;8.50;;
17790;SDS011;9019;48.132;-1.210;2022-09-21T05:14:31;10.50;;;9.00;;
17790;SDS011;9019;48.132;-1.210;2022-09-21T05:16:58;11.33;;;8.73;;
17790;SDS011;9019;48.132;-1.210;2022-09-21T05:19:26;11.27;;;9.13;;
17790;SDS011;9019;48.132;-1.210;2022-09-21T05:21:54;11.27;;;8.40;;
17790;SDS011;9019;48.132;-1.210;2022-09-21T05:24:22;11.97;;;9.00;;
17790;SDS011;9019;48.132;-1.210;2022-09-21T05:26:49;10.50;;;9.10;;
17790;SDS011;9019;48.132;-1.210;2022-09-21T05:29:16;10.77;;;9.33;;
17790;SDS011;9019;48.132;-1.210;2022-09-21T05:31:44;11.90;;;9.93;;
17790;SDS011;9019;48.132;-1.210;2022-09-21T05:34:17;13.20;;;9.93;;
17790;SDS011;9019;48.132;-1.210;2022-09-21T05:36:47;10.73;;;9.47;;
17790;SDS011;9019;48.132;-1.210;2022-09-21T05:39:17;11.13;;;9.47;;
17790;SDS011;9019;48.132;-1.210;2022-09-21T05:41:45;13.47;;;10.03;;
17790;SDS011;9019;48.132;-1.210;2022-09-21T05:44:12;11.50;;;9.60;;
17790;SDS011;9019;48.132;-1.210;2022-09-21T05:46:40;12.70;;;9.47;;
17790;SDS011;9019;48.132;-1.210;2022-09-21T05:49:11;11.67;;;9.30;;
17790;SDS011;9019;48.132;-1.210;2022-09-21T05:51:42;11.63;;;9.50;;
17790;SDS011;9019;48.132;-1.210;2022-09-21T05:54:13;11.27;;;9.20;;
17790;SDS011;9019;48.132;-1.210;2022-09-21T05:56:45;12.00;;;9.83;;
17790;SDS011;9019;48.132;-1.210;2022-09-21T05:59:21;14.83;;;10.03;;
17790;SDS011;9019;48.132;-1.210;2022-09-21T06:01:54;13.73;;;9.67;;
17790;SDS011;9019;48.132;-1.210;2022-09-21T06:04:24;11.40;;;9.30;;
17790;SDS011;9019;48.132;-1.210;2022-09-21T06:06:51;12.63;;;9.67;;
17790;SDS011;9019;48.132;-1.210;2022-09-21T06:09:18;12.07;;;9.70;;
17790;SDS011;9019;48.132;-1.210;2022-09-21T06:11:47;11.47;;;9.40;;
17790;SDS011;9019;48.132;-1.210;2022-09-21T06:14:14;12.03;;;9.27;;
17790;SDS011;9019;48.132;-1.210;2022-09-21T06:16:48;14.47;;;9.33;;
17790;SDS011;9019;48.132;-1.210;2022-09-21T06:19:15;11.50;;;9.40;;
17790;SDS011;9019;48.132;-1.210;2022-09-21T06:21:43;10.80;;;9.13;;
17790;SDS011;9019;48.132;-1.210;2022-09-21T06:24:10;14.33;;;9.90;;
17790;SDS011;9019;48.132;-1.210;2022-09-21T06:26:37;11.67;;;8.83;;
17790;SDS011;9019;48.132;-1.210;2022-09-21T06:29:06;11.27;;;9.20;;
17790;SDS011;9019;48.132;-1.210;2022-09-21T06:31:33;12.20;;;9.13;;
17790;SDS011;9019;48.132;-1.210;2022-09-21T06:34:03;11.70;;;9.80;;
17790;SDS011;9019;48.132;-1.210;2022-09-21T06:36:33;12.10;;;9.10;;
17790;SDS011;9019;48.132;-1.210;2022-09-21T06:39:00;12.40;;;9.33;;
17790;SDS011;9019;48.132;-1.210;2022-09-21T06:41:28;11.80;;;9.50;;
17790;SDS011;9019;48.132;-1.210;2022-09-21T06:43:55;12.37;;;9.50;;
17790;SDS011;9019;48.132;-1.210;2022-09-21T06:46:23;10.23;;;9.13;;
17790;SDS011;9019;48.132;-1.210;2022-09-21T06:48:50;9.77;;;8.60;;
17790;SDS011;9019;48.132;-1.210;2022-09-21T06:51:18;9.87;;;7.83;;
17790;SDS011;9019;48.132;-1.210;2022-09-21T06:53:46;8.07;;;6.57;;
17790;SDS011;9019;48.132;-1.210;2022-09-21T06:56:13;8.83;;;7.07;;
17790;SDS011;9019;48.132;-1.210;2022-09-21T06:58:40;6.90;;;6.20;;
17790;SDS011;9019;48.132;-1.210;2022-09-21T07:01:08;8.07;;;5.70;;
17790;SDS011;9019;48.132;-1.210;2022-09-21T07:03:37;7.60;;;6.00;;
17790;SDS011;9019;48.132;-1.210;2022-09-21T07:06:05;7.60;;;5.60;;
17790;SDS011;9019;48.132;-1.210;2022-09-21T07:08:33;7.57;;;5.97;;
17790;SDS011;9019;48.132;-1.210;2022-09-21T07:11:00;7.43;;;5.93;;
17790;SDS011;9019;48.132;-1.210;2022-09-21T07:13:28;5.63;;;5.13;;
17790;SDS011;9019;48.132;-1.210;2022-09-21T07:15:55;6.43;;;4.95;;
17790;SDS011;9019;48.132;-1.210;2022-09-21T07:18:22;7.45;;;5.20;;
17790;SDS011;9019;48.132;-1.210;2022-09-21T07:20:51;7.43;;;4.65;;
17790;SDS011;9019;48.132;-1.210;2022-09-21T07:23:19;5.28;;;4.65;;
17790;SDS011;9019;48.132;-1.210;2022-09-21T07:25:47;5.88;;;4.57;;
17790;SDS011;9019;48.132;-1.210;2022-09-21T07:28:16;5.70;;;4.15;;
17790;SDS011;9019;48.132;-1.210;2022-09-21T07:30:44;5.03;;;4.10;;
17790;SDS011;9019;48.132;-1.210;2022-09-21T07:33:11;4.30;;;3.72;;
17790;SDS011;9019;48.132;-1.210;2022-09-21T07:35:38;4.22;;;3.83;;
17790;SDS011;9019;48.132;-1.210;2022-09-21T07:38:06;5.50;;;4.10;;
17790;SDS011;9019;48.132;-1.210;2022-09-21T07:40:34;7.18;;;4.00;;
17790;SDS011;9019;48.132;-1.210;2022-09-21T07:43:01;4.10;;;3.80;;
17790;SDS011;9019;48.132;-1.210;2022-09-21T07:45:28;4.65;;;4.05;;
17790;SDS011;9019;48.132;-1.210;2022-09-21T07:48:00;6.03;;;4.00;;
17790;SDS011;9019;48.132;-1.210;2022-09-21T07:50:27;4.28;;;3.60;;
17790;SDS011;9019;48.132;-1.210;2022-09-21T07:52:54;5.63;;;3.80;;
17790;SDS011;9019;48.132;-1.210;2022-09-21T07:55:23;5.28;;;3.38;;
17790;SDS011;9019;48.132;-1.210;2022-09-21T07:57:50;4.68;;;3.22;;
17790;SDS011;9019;48.132;-1.210;2022-09-21T08:00:46;7.50;;;3.17;;
17790;SDS011;9019;48.132;-1.210;2022-09-21T08:03:14;4.28;;;3.03;;
17790;SDS011;9019;48.132;-1.210;2022-09-21T08:05:41;4.53;;;2.92;;
17790;SDS011;9019;48.132;-1.210;2022-09-21T08:08:08;3.60;;;2.80;;
17790;SDS011;9019;48.132;-1.210;2022-09-21T08:10:37;4.85;;;2.70;;
17790;SDS011;9019;48.132;-1.210;2022-09-21T08:13:04;4.78;;;2.50;;
17790;SDS011;9019;48.132;-1.210;2022-09-21T08:15:31;3.53;;;2.83;;
17790;SDS011;9019;48.132;-1.210;2022-09-21T08:17:59;4.55;;;2.63;;
17790;SDS011;9019;48.132;-1.210;2022-09-21T08:20:26;3.25;;;2.80;;
17790;SDS011;9019;48.132;-1.210;2022-09-21T08:22:54;4.18;;;2.50;;
17790;SDS011;9019;48.132;-1.210;2022-09-21T08:25:21;3.83;;;2.58;;
17790;SDS011;9019;48.132;-1.210;2022-09-21T08:27:50;3.92;;;2.60;;
17790;SDS011;9019;48.132;-1.210;2022-09-21T08:30:17;4.80;;;2.33;;
17790;SDS011;9019;48.132;-1.210;2022-09-21T08:32:45;5.78;;;2.40;;
17790;SDS011;9019;48.132;-1.210;2022-09-21T08:35:12;7.10;;;2.10;;
17790;SDS011;9019;48.132;-1.210;2022-09-21T08:37:39;3.25;;;1.88;;
17790;SDS011;9019;48.132;-1.210;2022-09-21T08:40:08;5.15;;;2.28;;
17790;SDS011;9019;48.132;-1.210;2022-09-21T08:42:38;3.13;;;1.98;;
17790;SDS011;9019;48.132;-1.210;2022-09-21T08:45:09;3.42;;;2.00;;
17790;SDS011;9019;48.132;-1.210;2022-09-21T08:47:39;4.55;;;2.25;;
17790;SDS011;9019;48.132;-1.210;2022-09-21T08:50:12;4.25;;;1.73;;
17790;SDS011;9019;48.132;-1.210;2022-09-21T08:52:45;4.93;;;2.00;;
17790;SDS011;9019;48.132;-1.210;2022-09-21T08:55:15;2.88;;;1.88;;
17790;SDS011;9019;48.132;-1.210;2022-09-21T08:57:43;4.40;;;1.90;;
17790;SDS011;9019;48.132;-1.210;2022-09-21T09:00:13;2.63;;;1.90;;
17790;SDS011;9019;48.132;-1.210;2022-09-21T09:02:46;4.95;;;1.80;;
17790;SDS011;9019;48.132;-1.210;2022-09-21T09:05:19;4.57;;;2.00;;
17790;SDS011;9019;48.132;-1.210;2022-09-21T09:07:53;5.18;;;1.70;;
17790;SDS011;9019;48.132;-1.210;2022-09-21T09:10:29;3.92;;;1.70;;
17790;SDS011;9019;48.132;-1.210;2022-09-21T09:13:00;3.88;;;1.83;;
17790;SDS011;9019;48.132;-1.210;2022-09-21T09:15:43;2.40;;;1.48;;
17790;SDS011;9019;48.132;-1.210;2022-09-21T09:18:17;5.13;;;1.77;;
17790;SDS011;9019;48.132;-1.210;2022-09-21T09:20:45;3.35;;;1.45;;
17790;SDS011;9019;48.132;-1.210;2022-09-21T09:23:17;5.18;;;1.60;;
17790;SDS011;9019;48.132;-1.210;2022-09-21T09:25:48;3.42;;;1.58;;
17790;SDS011;9019;48.132;-1.210;2022-09-21T09:28:20;2.70;;;1.40;;
17790;SDS011;9019;48.132;-1.210;2022-09-21T09:30:54;2.38;;;1.30;;
17790;SDS011;9019;48.132;-1.210;2022-09-21T09:33:23;4.22;;;1.45;;
17790;SDS011;9019;48.132;-1.210;2022-09-21T09:35:53;2.42;;;1.17;;
17790;SDS011;9019;48.132;-1.210;2022-09-21T09:38:23;3.08;;;1.40;;
17790;SDS011;9019;48.132;-1.210;2022-09-21T09:40:59;4.18;;;1.23;;
17790;SDS011;9019;48.132;-1.210;2022-09-21T09:43:35;1.80;;;1.17;;
17790;SDS011;9019;48.132;-1.210;2022-09-21T09:46:08;2.22;;;1.27;;
17790;SDS011;9019;48.132;-1.210;2022-09-21T09:51:20;3.35;;;1.20;;
17790;SDS011;9019;48.132;-1.210;2022-09-21T09:53:48;3.38;;;1.40;;
17790;SDS011;9019;48.132;-1.210;2022-09-21T09:56:18;2.38;;;1.17;;
17790;SDS011;9019;48.132;-1.210;2022-09-21T09:58:46;5.10;;;1.30;;
17790;SDS011;9019;48.132;-1.210;2022-09-21T10:04:05;2.70;;;1.35;;
17790;SDS011;9019;48.132;-1.210;2022-09-21T10:06:32;2.35;;;1.38;;
17790;SDS011;9019;48.132;-1.210;2022-09-21T10:09:00;4.07;;;1.20;;
17790;SDS011;9019;48.132;-1.210;2022-09-21T10:11:33;2.65;;;1.23;;
17790;SDS011;9019;48.132;-1.210;2022-09-21T10:14:06;3.30;;;1.27;;
17790;SDS011;9019;48.132;-1.210;2022-09-21T10:16:35;2.50;;;1.10;;
17790;SDS011;9019;48.132;-1.210;2022-09-21T10:19:12;3.72;;;1.30;;
17790;SDS011;9019;48.132;-1.210;2022-09-21T10:21:40;4.57;;;1.30;;
17790;SDS011;9019;48.132;-1.210;2022-09-21T10:24:13;2.13;;;1.33;;
17790;SDS011;9019;48.132;-1.210;2022-09-21T10:26:43;3.58;;;1.48;;
17790;SDS011;9019;48.132;-1.210;2022-09-21T10:29:27;2.50;;;1.23;;
17790;SDS011;9019;48.132;-1.210;2022-09-21T10:31:55;2.22;;;1.23;;
17790;SDS011;9019;48.132;-1.210;2022-09-21T10:34:25;3.10;;;1.35;;
17790;SDS011;9019;48.132;-1.210;2022-09-21T10:36:55;3.53;;;1.20;;
17790;SDS011;9019;48.132;-1.210;2022-09-21T10:39:23;4.35;;;1.40;;
17790;SDS011;9019;48.132;-1.210;2022-09-21T10:41:52;3.47;;;1.05;;
17790;SDS011;9019;48.132;-1.210;2022-09-21T10:44:21;2.95;;;1.25;;
17790;SDS011;9019;48.132;-1.210;2022-09-21T10:46:49;2.13;;;1.17;;
17790;SDS011;9019;48.132;-1.210;2022-09-21T10:49:19;3.53;;;1.27;;
17790;SDS011;9019;48.132;-1.210;2022-09-21T10:51:48;3.38;;;1.10;;
17790;SDS011;9019;48.132;-1.210;2022-09-21T10:54:20;3.03;;;1.25;;
17790;SDS011;9019;48.132;-1.210;2022-09-21T10:56:49;3.08;;;1.00;;
17790;SDS011;9019;48.132;-1.210;2022-09-21T10:59:21;4.15;;;1.20;;
17790;SDS011;9019;48.132;-1.210;2022-09-21T11:01:50;3.33;;;0.95;;
17790;SDS011;9019;48.132;-1.210;2022-09-21T11:04:27;1.60;;;1.00;;
17790;SDS011;9019;48.132;-1.210;2022-09-21T11:06:57;3.20;;;1.08;;
17790;SDS011;9019;48.132;-1.210;2022-09-21T11:09:28;2.88;;;1.10;;
17790;SDS011;9019;48.132;-1.210;2022-09-21T11:11:58;1.70;;;0.90;;
17790;SDS011;9019;48.132;-1.210;2022-09-21T11:14:33;2.05;;;0.90;;
17790;SDS011;9019;48.132;-1.210;2022-09-21T11:17:06;2.00;;;0.80;;
17790;SDS011;9019;48.132;-1.210;2022-09-21T11:19:35;1.83;;;0.80;;
17790;SDS011;9019;48.132;-1.210;2022-09-21T11:22:06;1.73;;;0.80;;
17790;SDS011;9019;48.132;-1.210;2022-09-21T11:24:36;2.33;;;0.82;;
17790;SDS011;9019;48.132;-1.210;2022-09-21T11:27:07;1.58;;;0.90;;
17790;SDS011;9019;48.132;-1.210;2022-09-21T11:29:37;2.95;;;0.90;;
17790;SDS011;9019;48.132;-1.210;2022-09-21T11:32:14;3.47;;;0.68;;
17790;SDS011;9019;48.132;-1.210;2022-09-21T11:37:32;1.33;;;0.75;;
17790;SDS011;9019;48.132;-1.210;2022-09-21T11:40:09;2.65;;;0.75;;
17790;SDS011;9019;48.132;-1.210;2022-09-21T11:42:45;1.58;;;0.70;;
17790;SDS011;9019;48.132;-1.210;2022-09-21T11:45:20;1.38;;;0.60;;
17790;SDS011;9019;48.132;-1.210;2022-09-21T11:47:53;1.58;;;0.60;;
17790;SDS011;9019;48.132;-1.210;2022-09-21T11:50:31;2.30;;;0.52;;
17790;SDS011;9019;48.132;-1.210;2022-09-21T11:53:05;1.20;;;0.60;;
17790;SDS011;9019;48.132;-1.210;2022-09-21T11:55:50;1.30;;;0.65;;
17790;SDS011;9019;48.132;-1.210;2022-09-21T11:58:22;2.53;;;0.60;;
17790;SDS011;9019;48.132;-1.210;2022-09-21T12:00:54;1.20;;;0.60;;
17790;SDS011;9019;48.132;-1.210;2022-09-21T12:03:31;2.00;;;0.60;;
17790;SDS011;9019;48.132;-1.210;2022-09-21T12:06:05;1.05;;;0.60;;
17790;SDS011;9019;48.132;-1.210;2022-09-21T12:08:59;2.45;;;0.65;;
17790;SDS011;9019;48.132;-1.210;2022-09-21T12:11:31;1.30;;;0.68;;
17790;SDS011;9019;48.132;-1.210;2022-09-21T12:14:00;1.73;;;0.55;;
17790;SDS011;9019;48.132;-1.210;2022-09-21T12:16:31;2.60;;;0.60;;
17790;SDS011;9019;48.132;-1.210;2022-09-21T12:19:03;1.13;;;0.50;;
17790;SDS011;9019;48.132;-1.210;2022-09-21T12:21:32;2.20;;;0.50;;
17790;SDS011;9019;48.132;-1.210;2022-09-21T12:24:03;1.40;;;0.40;;
17790;SDS011;9019;48.132;-1.210;2022-09-21T12:26:32;0.73;;;0.40;;
17790;SDS011;9019;48.132;-1.210;2022-09-21T12:29:03;1.13;;;0.50;;
17790;SDS011;9019;48.132;-1.210;2022-09-21T12:31:34;1.52;;;0.30;;
17790;SDS011;9019;48.132;-1.210;2022-09-21T12:34:03;1.25;;;0.45;;
17790;SDS011;9019;48.132;-1.210;2022-09-21T12:36:32;1.83;;;0.50;;
17790;SDS011;9019;48.132;-1.210;2022-09-21T12:39:04;2.10;;;0.68;;
17790;SDS011;9019;48.132;-1.210;2022-09-21T12:41:35;0.70;;;0.35;;
17790;SDS011;9019;48.132;-1.210;2022-09-21T12:44:05;1.13;;;0.40;;
17790;SDS011;9019;48.132;-1.210;2022-09-21T12:46:36;1.60;;;0.50;;
17790;SDS011;9019;48.132;-1.210;2022-09-21T12:49:09;1.27;;;0.60;;
17790;SDS011;9019;48.132;-1.210;2022-09-21T12:51:40;2.22;;;0.50;;
17790;SDS011;9019;48.132;-1.210;2022-09-21T12:54:13;0.90;;;0.43;;
17790;SDS011;9019;48.132;-1.210;2022-09-21T12:56:46;0.90;;;0.40;;
17790;SDS011;9019;48.132;-1.210;2022-09-21T12:59:17;0.80;;;0.57;;
17790;SDS011;9019;48.132;-1.210;2022-09-21T13:01:50;0.93;;;0.43;;
17790;SDS011;9019;48.132;-1.210;2022-09-21T13:04:31;0.90;;;0.40;;
17790;SDS011;9019;48.132;-1.210;2022-09-21T13:09:55;0.82;;;0.40;;
17790;SDS011;9019;48.132;-1.210;2022-09-21T13:12:23;1.52;;;0.55;;
17790;SDS011;9019;48.132;-1.210;2022-09-21T13:14:57;1.15;;;0.65;;
17790;SDS011;9019;48.132;-1.210;2022-09-21T13:17:26;2.58;;;0.50;;
17790;SDS011;9019;48.132;-1.210;2022-09-21T13:19:56;1.38;;;0.50;;
17790;SDS011;9019;48.132;-1.210;2022-09-21T13:22:29;1.17;;;0.50;;
17790;SDS011;9019;48.132;-1.210;2022-09-21T13:24:59;0.93;;;0.70;;
17790;SDS011;9019;48.132;-1.210;2022-09-21T13:30:27;0.60;;;0.50;;
17790;SDS011;9019;48.132;-1.210;2022-09-21T13:32:56;2.00;;;0.70;;
17790;SDS011;9019;48.132;-1.210;2022-09-21T13:38:22;0.90;;;0.60;;
17790;SDS011;9019;48.132;-1.210;2022-09-21T13:40:56;1.02;;;0.60;;
17790;SDS011;9019;48.132;-1.210;2022-09-21T13:43:24;1.13;;;0.50;;
17790;SDS011;9019;48.132;-1.210;2022-09-21T13:49:12;1.45;;;0.60;;
17790;SDS011;9019;48.132;-1.210;2022-09-21T13:51:48;2.55;;;0.60;;
17790;SDS011;9019;48.132;-1.210;2022-09-21T13:54:16;1.60;;;0.60;;
17790;SDS011;9019;48.132;-1.210;2022-09-21T13:56:47;1.65;;;0.70;;
17790;SDS011;9019;48.132;-1.210;2022-09-21T13:59:23;1.95;;;0.60;;
17790;SDS011;9019;48.132;-1.210;2022-09-21T14:01:52;1.00;;;0.60;;
17790;SDS011;9019;48.132;-1.210;2022-09-21T14:04:21;1.42;;;0.70;;
17790;SDS011;9019;48.132;-1.210;2022-09-21T14:06:50;2.92;;;0.70;;
17790;SDS011;9019;48.132;-1.210;2022-09-21T14:09:20;1.70;;;0.50;;
17790;SDS011;9019;48.132;-1.210;2022-09-21T14:11:53;6.68;;;1.00;;
17790;SDS011;9019;48.132;-1.210;2022-09-21T14:14:25;1.65;;;0.50;;
17790;SDS011;9019;48.132;-1.210;2022-09-21T14:16:54;1.70;;;0.60;;
17790;SDS011;9019;48.132;-1.210;2022-09-21T14:25:14;1.23;;;0.63;;
17790;SDS011;9019;48.132;-1.210;2022-09-21T14:27:44;1.40;;;0.70;;
17790;SDS011;9019;48.132;-1.210;2022-09-21T14:30:15;1.55;;;0.50;;
17790;SDS011;9019;48.132;-1.210;2022-09-21T14:32:45;2.22;;;0.50;;
17790;SDS011;9019;48.132;-1.210;2022-09-21T14:35:14;2.20;;;0.80;;
17790;SDS011;9019;48.132;-1.210;2022-09-21T14:37:44;1.00;;;0.68;;
17790;SDS011;9019;48.132;-1.210;2022-09-21T14:40:16;1.50;;;0.60;;
17790;SDS011;9019;48.132;-1.210;2022-09-21T14:42:46;1.15;;;0.70;;
17790;SDS011;9019;48.132;-1.210;2022-09-21T14:45:16;1.25;;;0.68;;
17790;SDS011;9019;48.132;-1.210;2022-09-21T14:47:50;1.75;;;0.77;;
17790;SDS011;9019;48.132;-1.210;2022-09-21T14:50:23;1.45;;;0.73;;
17790;SDS011;9019;48.132;-1.210;2022-09-21T14:55:48;2.17;;;0.70;;
17790;SDS011;9019;48.132;-1.210;2022-09-21T14:58:28;1.45;;;0.80;;
17790;SDS011;9019;48.132;-1.210;2022-09-21T15:03:47;0.80;;;0.60;;
17790;SDS011;9019;48.132;-1.210;2022-09-21T15:06:19;1.63;;;0.80;;
17790;SDS011;9019;48.132;-1.210;2022-09-21T15:09:12;1.52;;;0.98;;
17790;SDS011;9019;48.132;-1.210;2022-09-21T15:12:02;1.67;;;1.00;;
17790;SDS011;9019;48.132;-1.210;2022-09-21T15:14:36;1.10;;;0.65;;
17790;SDS011;9019;48.132;-1.210;2022-09-21T15:17:16;2.15;;;1.08;;
17790;SDS011;9019;48.132;-1.210;2022-09-21T15:19:44;5.82;;;0.90;;
17790;SDS011;9019;48.132;-1.210;2022-09-21T15:22:15;2.53;;;0.90;;
17790;SDS011;9019;48.132;-1.210;2022-09-21T15:24:47;4.30;;;1.40;;
17790;SDS011;9019;48.132;-1.210;2022-09-21T15:27:15;1.60;;;1.00;;
17790;SDS011;9019;48.132;-1.210;2022-09-21T15:29:45;2.00;;;0.93;;
17790;SDS011;9019;48.132;-1.210;2022-09-21T15:32:15;2.75;;;0.95;;
17790;SDS011;9019;48.132;-1.210;2022-09-21T15:34:54;2.72;;;1.02;;
17790;SDS011;9019;48.132;-1.210;2022-09-21T15:37:25;1.33;;;1.00;;